Terminal Aerodrome Forecast
Issued by NWS

Home | Current Version | Previous Version | Text Only | Print | Product List | Glossary On
Versions: 1 2 3 4 5 6 7 8 9 10 11 12 13
000
FTUS44 KTSA 301100
TAFMLC
TAF
KMLC 301120Z 3012/0112 VRB03KT P6SM FEW250
     FM301500 18007KT P6SM SCT060
     FM010000 14005KT P6SM SCT250=

USA.gov is the U.S. government's official web portal to all federal, state and local government web resources and services.